Time;durP1;ratioP1;P1;durP2;ratioP2;P2;SDS_P1;SDS_P2;PMS_P1;PMS_P2;Temp;Humidity;BMP_temperature;BMP_pressure;BME280_temperature;BME280_humidity;BME280_pressure;Samples;Min_cycle;Max_cycle;Signal;HPM_P1;HPM_P2
2021/01/16 00:01:47;;;;;;;;;;;3.30;98.60;;;;;;4347654;32;20463;-34
2021/01/16 00:04:14;;;;;;;;;;;3.30;98.60;;;;;;4361645;32;20057;-33
2021/01/16 00:06:41;;;;;;;;;;;3.30;98.70;;;;;;4361559;32;20060;-33
2021/01/16 00:09:11;;;;;;;;;;;3.30;98.60;;;;;;4360395;32;20001;-34
2021/01/16 00:11:38;;;;;;;;;;;3.30;98.70;;;;;;4361351;32;20015;-34
2021/01/16 00:14:05;;;;;;;;;;;3.30;98.60;;;;;;4361134;32;20043;-33
2021/01/16 00:16:32;;;;;;;;;;;3.30;98.60;;;;;;4361131;32;20015;-33
2021/01/16 00:18:59;;;;;;;;;;;3.30;98.70;;;;;;4360249;32;20004;-34
2021/01/16 00:21:28;;;;;;;;;;;3.30;98.70;;;;;;4361509;32;20004;-34
2021/01/16 00:23:55;;;;;;;;;;;3.30;98.70;;;;;;4361318;32;20026;-34
2021/01/16 00:26:24;;;;;;;;;;;3.30;98.80;;;;;;4361114;33;20011;-34
2021/01/16 00:28:51;;;;;;;;;;;3.30;98.70;;;;;;4360019;33;20358;-34
2021/01/16 00:31:18;;;;;;;;;;;3.30;98.70;;;;;;4361329;32;20015;-33
2021/01/16 00:33:47;;;;;;;;;;;3.30;98.70;;;;;;4361296;33;20015;-33
2021/01/16 00:36:16;;;;;;;;;;;3.30;98.70;;;;;;4361385;33;20013;-34
2021/01/16 00:38:43;;;;;;;;;;;3.30;98.70;;;;;;4347548;33;20017;-34
2021/01/16 00:41:13;;;;;;;;;;;3.30;98.70;;;;;;4347568;33;20392;-34
2021/01/16 00:43:40;;;;;;;;;;;3.30;98.60;;;;;;4347495;33;20405;-34
2021/01/16 00:46:07;;;;;;;;;;;3.30;98.60;;;;;;4361266;33;20439;-33
2021/01/16 00:48:36;;;;;;;;;;;3.30;98.70;;;;;;4348189;33;20119;-34
2021/01/16 00:51:06;;;;;;;;;;;3.30;98.80;;;;;;4363258;32;20005;-34
2021/01/16 00:53:32;;;;;;;;;;;3.30;98.70;;;;;;4363983;32;20009;-34
2021/01/16 00:55:59;;;;;;;;;;;3.30;98.70;;;;;;4364015;32;20013;-34
2021/01/16 00:58:29;;;;;;;;;;;3.30;98.60;;;;;;4363838;32;20019;-34
2021/01/16 01:00:56;;;;;;;;;;;3.30;98.60;;;;;;4364164;32;20089;-33
2021/01/16 01:03:23;;;;;;;;;;;3.30;98.70;;;;;;4363492;32;20013;-34
2021/01/16 01:05:56;;;;;;;;;;;3.30;98.70;;;;;;4363935;32;20019;-34
2021/01/16 01:08:26;;;;;;;;;;;3.30;98.60;;;;;;4362917;32;20019;-33
2021/01/16 01:10:53;;;;;;;;;;;3.30;98.70;;;;;;4350403;32;20001;-33
2021/01/16 01:13:23;;;;;;;;;;;3.20;98.50;;;;;;4350363;32;20371;-33
2021/01/16 01:15:52;;;;;;;;;;;3.30;98.70;;;;;;4350273;32;20000;-33
2021/01/16 01:18:22;;;;;;;;;;;3.30;98.70;;;;;;4363589;32;19996;-34
2021/01/16 01:20:54;;;;;;;;;;;3.20;98.60;;;;;;4350833;32;20377;-34
2021/01/16 01:23:22;;;;;;;;;;;3.20;98.60;;;;;;4363769;32;20013;-34
2021/01/16 01:25:48;;;;;;;;;;;3.30;98.70;;;;;;4363553;32;20001;-34
2021/01/16 01:28:15;;;;;;;;;;;3.20;98.60;;;;;;4363679;32;20019;-34
2021/01/16 01:30:41;;;;;;;;;;;3.20;98.70;;;;;;4363643;32;20009;-34
2021/01/16 01:33:15;;;;;;;;;;;3.20;98.70;;;;;;4363396;32;20020;-34
2021/01/16 01:35:42;;;;;;;;;;;3.20;98.70;;;;;;4363474;32;20023;-33
2021/01/16 01:38:13;;;;;;;;;;;3.30;98.70;;;;;;4362399;32;20005;-34
2021/01/16 01:40:40;;;;;;;;;;;3.30;98.60;;;;;;4363647;32;20008;-33
2021/01/16 01:43:07;;;;;;;;;;;3.20;98.60;;;;;;4363565;32;20071;-34
2021/01/16 01:45:33;;;;;;;;;;;3.20;98.60;;;;;;4363785;32;20013;-33
2021/01/16 01:48:01;;;;;;;;;;;3.20;98.70;;;;;;4362067;32;20008;-34
2021/01/16 01:50:30;;;;;;;;;;;3.20;98.70;;;;;;4363267;32;20064;-34
2021/01/16 01:53:00;;;;;;;;;;;3.20;98.60;;;;;;4349988;32;20072;-33
2021/01/16 01:55:28;;;;;;;;;;;3.30;98.60;;;;;;4363416;32;20022;-37
2021/01/16 01:57:56;;;;;;;;;;;3.30;98.70;;;;;;4349355;32;20076;-34
2021/01/16 02:00:23;;;;;;;;;;;3.20;98.60;;;;;;4363047;32;20071;-34
2021/01/16 02:02:52;;;;;;;;;;;3.20;98.70;;;;;;4362512;32;20031;-34
2021/01/16 02:05:19;;;;;;;;;;;3.30;98.60;;;;;;4363120;32;20009;-33
2021/01/16 02:07:49;;;;;;;;;;;3.20;98.60;;;;;;4363120;32;20018;-33
2021/01/16 02:10:23;;;;;;;;;;;3.30;98.70;;;;;;4363117;32;20004;-34
2021/01/16 02:12:52;;;;;;;;;;;3.20;98.60;;;;;;4363258;32;20440;-34
2021/01/16 02:15:29;;;;;;;;;;;3.20;98.60;;;;;;4349511;32;20043;-33
2021/01/16 02:18:00;;;;;;;;;;;3.20;98.60;;;;;;4349766;32;20019;-33
2021/01/16 02:20:28;;;;;;;;;;;3.20;98.70;;;;;;4362582;32;20178;-33
2021/01/16 02:22:57;;;;;;;;;;;3.20;98.60;;;;;;4362613;32;20019;-34
2021/01/16 02:25:37;;;;;;;;;;;3.20;98.70;;;;;;4349036;32;20001;-34
2021/01/16 02:28:05;;;;;;;;;;;3.20;98.70;;;;;;4361689;32;20370;-34
2021/01/16 02:30:36;;;;;;;;;;;3.20;98.70;;;;;;4362841;32;20427;-34
2021/01/16 02:33:04;;;;;;;;;;;3.20;98.60;;;;;;4362855;32;20381;-34
2021/01/16 02:35:36;;;;;;;;;;;3.20;98.60;;;;;;4362444;32;20041;-34
2021/01/16 02:38:07;;;;;;;;;;;3.20;98.60;;;;;;4362856;32;20397;-33
2021/01/16 02:40:46;;;;;;;;;;;3.20;98.90;;;;;;4349221;32;20007;-34
2021/01/16 02:43:24;;;;;;;;;;;3.20;98.60;;;;;;4349207;32;20023;-33
2021/01/16 02:46:09;;;;;;;;;;;3.20;98.70;;;;;;4362394;32;20023;-34
2021/01/16 02:48:43;;;;;;;;;;;3.20;98.60;;;;;;4362944;32;20025;-33
2021/01/16 02:51:12;;;;;;;;;;;3.20;98.60;;;;;;4349177;32;20020;-33
2021/01/16 02:53:44;;;;;;;;;;;3.20;98.60;;;;;;4362297;32;20360;-33
2021/01/16 02:56:15;;;;;;;;;;;3.20;98.50;;;;;;4362452;32;20432;-34
2021/01/16 02:58:42;;;;;;;;;;;3.20;98.50;;;;;;4362555;32;20414;-34
2021/01/16 03:01:08;;;;;;;;;;;3.20;98.60;;;;;;4362353;32;20004;-33
2021/01/16 03:03:38;;;;;;;;;;;3.20;98.60;;;;;;4362176;32;20412;-33
2021/01/16 03:06:06;;;;;;;;;;;3.20;98.60;;;;;;4361117;32;20437;-34
2021/01/16 03:08:33;;;;;;;;;;;3.20;98.60;;;;;;4348992;32;20398;-34
2021/01/16 03:11:00;;;;;;;;;;;3.20;98.60;;;;;;4362268;32;20017;-34
2021/01/16 03:13:31;;;;;;;;;;;3.20;98.60;;;;;;4361339;32;20123;-34
2021/01/16 03:15:58;;;;;;;;;;;3.20;98.60;;;;;;4348766;32;20076;-33
2021/01/16 03:18:31;;;;;;;;;;;3.20;98.60;;;;;;4361980;32;20061;-33
2021/01/16 03:21:01;;;;;;;;;;;3.20;98.60;;;;;;4362332;32;20013;-33
2021/01/16 03:23:31;;;;;;;;;;;3.20;98.50;;;;;;4348903;32;20065;-34
2021/01/16 03:25:58;;;;;;;;;;;3.20;98.50;;;;;;4361753;32;20372;-34
2021/01/16 03:28:27;;;;;;;;;;;3.20;98.50;;;;;;4361665;32;20071;-34
2021/01/16 03:30:57;;;;;;;;;;;3.20;98.50;;;;;;4336088;32;20015;-34
2021/01/16 03:33:24;;;;;;;;;;;3.20;98.60;;;;;;4361981;32;20393;-34
2021/01/16 03:35:55;;;;;;;;;;;3.20;98.60;;;;;;4362001;32;20413;-34
2021/01/16 03:38:24;;;;;;;;;;;3.20;98.60;;;;;;4336274;32;20000;-34
2021/01/16 03:40:51;;;;;;;;;;;3.20;98.60;;;;;;4348130;32;20346;-33
2021/01/16 03:43:18;;;;;;;;;;;3.20;98.60;;;;;;4360544;32;20009;-33
2021/01/16 03:45:51;;;;;;;;;;;3.20;98.60;;;;;;4361732;32;20039;-33
2021/01/16 03:48:25;;;;;;;;;;;3.20;98.60;;;;;;4336203;32;20011;-33
2021/01/16 03:50:57;;;;;;;;;;;3.20;98.50;;;;;;4336187;32;20019;-33
2021/01/16 03:53:24;;;;;;;;;;;3.20;98.60;;;;;;4348551;32;20005;-33
2021/01/16 03:55:54;;;;;;;;;;;3.20;98.70;;;;;;4347957;32;20005;-33
2021/01/16 03:58:20;;;;;;;;;;;3.20;98.60;;;;;;4361757;32;20005;-33
2021/01/16 04:00:48;;;;;;;;;;;3.20;98.60;;;;;;4361620;32;20068;-33
2021/01/16 04:03:14;;;;;;;;;;;3.20;98.50;;;;;;4361372;32;20013;-34
2021/01/16 04:05:41;;;;;;;;;;;3.20;98.50;;;;;;4361686;32;20012;-34
2021/01/16 04:08:08;;;;;;;;;;;3.20;98.50;;;;;;4361341;32;20060;-34
2021/01/16 04:10:34;;;;;;;;;;;3.20;98.50;;;;;;4348001;32;20393;-34
2021/01/16 04:13:01;;;;;;;;;;;3.10;98.40;;;;;;4348109;32;20393;-34
2021/01/16 04:15:31;;;;;;;;;;;3.20;98.50;;;;;;4361600;32;20017;-33
2021/01/16 04:17:57;;;;;;;;;;;3.10;98.40;;;;;;4361488;32;20669;-34
2021/01/16 04:20:24;;;;;;;;;;;3.20;98.50;;;;;;4361042;32;20031;-33
2021/01/16 04:22:51;;;;;;;;;;;3.10;98.40;;;;;;4361676;32;20056;-33
2021/01/16 04:25:17;;;;;;;;;;;3.20;98.50;;;;;;4361220;32;20063;-34
2021/01/16 04:27:44;;;;;;;;;;;3.10;98.40;;;;;;4360836;33;20020;-33
2021/01/16 04:30:19;;;;;;;;;;;3.10;98.40;;;;;;4361475;32;20012;-35
2021/01/16 04:32:45;;;;;;;;;;;3.10;98.50;;;;;;4347619;33;20013;-33
2021/01/16 04:35:12;;;;;;;;;;;3.10;98.60;;;;;;4361281;33;20012;-34
2021/01/16 04:37:41;;;;;;;;;;;3.10;98.60;;;;;;4347741;33;20028;-33
2021/01/16 04:40:11;;;;;;;;;;;3.10;98.50;;;;;;4361234;32;20005;-33
2021/01/16 04:42:43;;;;;;;;;;;3.10;98.50;;;;;;4347889;33;20009;-34
2021/01/16 04:45:13;;;;;;;;;;;3.10;98.40;;;;;;4347862;33;20023;-34
2021/01/16 04:47:47;;;;;;;;;;;3.10;98.40;;;;;;4347694;33;20022;-34
2021/01/16 04:50:18;;;;;;;;;;;3.10;98.30;;;;;;4335500;33;20028;-33
2021/01/16 04:52:51;;;;;;;;;;;3.10;98.40;;;;;;4360217;33;20365;-33
2021/01/16 04:55:19;;;;;;;;;;;3.10;98.40;;;;;;4335556;33;20110;-34
2021/01/16 04:57:46;;;;;;;;;;;3.10;98.40;;;;;;4359787;32;20394;-33
2021/01/16 05:00:16;;;;;;;;;;;3.10;98.40;;;;;;4360814;33;20004;-33
2021/01/16 05:02:43;;;;;;;;;;;3.10;98.40;;;;;;4359905;32;20013;-33
2021/01/16 05:05:10;;;;;;;;;;;3.10;98.40;;;;;;4361232;33;20092;-33
2021/01/16 05:07:37;;;;;;;;;;;3.10;98.30;;;;;;4347691;33;20023;-33
2021/01/16 05:10:06;;;;;;;;;;;3.10;98.40;;;;;;4361201;32;20019;-34
2021/01/16 05:12:51;;;;;;;;;;;3.10;98.40;;;;;;4360628;33;20004;-33
2021/01/16 05:15:21;;;;;;;;;;;3.10;98.40;;;;;;4360990;33;20076;-34
2021/01/16 05:17:57;;;;;;;;;;;3.10;98.80;;;;;;4347935;33;20466;-33
2021/01/16 05:20:28;;;;;;;;;;;3.10;98.50;;;;;;4347975;33;20402;-33
2021/01/16 05:23:11;;;;;;;;;;;3.10;98.40;;;;;;4361336;33;20009;-33
2021/01/16 05:25:42;;;;;;;;;;;3.10;98.40;;;;;;4347333;33;20489;-34
2021/01/16 05:28:10;;;;;;;;;;;3.10;98.30;;;;;;4347809;33;20052;-33
2021/01/16 05:30:47;;;;;;;;;;;3.10;98.20;;;;;;4360989;33;20005;-34
2021/01/16 05:33:14;;;;;;;;;;;3.10;98.20;;;;;;4360285;33;20031;-34
2021/01/16 05:35:42;;;;;;;;;;;3.10;98.20;;;;;;4360449;32;20427;-34
2021/01/16 05:38:11;;;;;;;;;;;3.10;98.20;;;;;;4349128;32;20050;-34
2021/01/16 05:40:42;;;;;;;;;;;3.00;98.50;;;;;;4363525;32;20004;-34
2021/01/16 05:43:12;;;;;;;;;;;3.00;98.10;;;;;;4349984;32;20405;-34
2021/01/16 05:45:39;;;;;;;;;;;3.10;98.20;;;;;;4363519;32;20008;-34
2021/01/16 05:48:09;;;;;;;;;;;3.00;98.20;;;;;;4363535;32;20015;-33
2021/01/16 05:50:39;;;;;;;;;;;3.00;98.60;;;;;;4361983;32;20023;-33
2021/01/16 05:53:08;;;;;;;;;;;3.00;98.20;;;;;;4337914;32;20401;-33
2021/01/16 05:55:35;;;;;;;;;;;3.10;98.30;;;;;;4363086;32;20080;-33
2021/01/16 05:58:07;;;;;;;;;;;3.00;98.20;;;;;;4363128;32;20349;-34
2021/01/16 06:00:35;;;;;;;;;;;3.00;98.20;;;;;;4362857;32;20154;-33
2021/01/16 06:03:05;;;;;;;;;;;3.00;98.20;;;;;;4346948;33;20054;-33
2021/01/16 06:05:35;;;;;;;;;;;3.00;98.20;;;;;;4348329;32;20012;-33
2021/01/16 06:08:08;;;;;;;;;;;3.10;98.20;;;;;;4347274;33;20088;-33
2021/01/16 06:10:38;;;;;;;;;;;3.00;98.20;;;;;;4346939;33;20031;-34
2021/01/16 06:13:15;;;;;;;;;;;3.00;98.10;;;;;;4348049;33;20005;-34
2021/01/16 06:15:46;;;;;;;;;;;3.10;98.20;;;;;;4346774;33;20020;-34
2021/01/16 06:18:18;;;;;;;;;;;3.10;98.20;;;;;;4347083;33;20012;-33
2021/01/16 06:20:51;;;;;;;;;;;3.00;98.20;;;;;;4347340;33;20472;-33
2021/01/16 06:23:19;;;;;;;;;;;3.00;98.20;;;;;;4347062;32;20064;-33
2021/01/16 06:25:53;;;;;;;;;;;3.00;98.30;;;;;;4347882;32;20005;-34
2021/01/16 06:28:24;;;;;;;;;;;3.00;98.30;;;;;;4347323;33;20017;-33
2021/01/16 06:30:52;;;;;;;;;;;3.00;98.20;;;;;;4348207;32;20001;-33
2021/01/16 06:33:24;;;;;;;;;;;3.00;98.00;;;;;;4346907;33;20036;-33
2021/01/16 06:35:58;;;;;;;;;;;3.00;98.10;;;;;;4348128;32;20032;-34
2021/01/16 06:38:25;;;;;;;;;;;3.00;98.00;;;;;;4346495;32;20064;-33
2021/01/16 06:40:53;;;;;;;;;;;3.00;97.90;;;;;;4347572;32;20016;-34
2021/01/16 06:43:23;;;;;;;;;;;3.00;98.00;;;;;;4346655;33;20036;-34
2021/01/16 06:46:06;;;;;;;;;;;3.00;98.30;;;;;;4346811;33;20035;-34
2021/01/16 06:48:43;;;;;;;;;;;3.00;98.00;;;;;;4346230;33;20013;-34
2021/01/16 06:51:26;;;;;;;;;;;2.90;97.90;;;;;;4334435;33;20001;-34
2021/01/16 06:53:52;;;;;;;;;;;2.90;97.90;;;;;;4347649;32;20027;-34
2021/01/16 06:56:32;;;;;;;;;;;2.90;98.00;;;;;;4347641;32;20335;-33
2021/01/16 06:59:03;;;;;;;;;;;2.90;98.00;;;;;;4347444;32;20099;-33
2021/01/16 07:01:32;;;;;;;;;;;2.90;98.00;;;;;;4347035;32;20060;-34
2021/01/16 07:04:02;;;;;;;;;;;3.00;98.10;;;;;;4362237;32;20335;-34
2021/01/16 07:06:48;;;;;;;;;;;3.00;98.00;;;;;;4362195;32;20023;-34
2021/01/16 07:09:19;;;;;;;;;;;2.90;97.90;;;;;;4348871;32;19997;-34
2021/01/16 07:11:50;;;;;;;;;;;2.90;97.90;;;;;;4361581;32;20012;-34
2021/01/16 07:14:18;;;;;;;;;;;2.90;97.90;;;;;;4348937;32;20030;-34
2021/01/16 07:16:53;;;;;;;;;;;2.90;97.80;;;;;;4361824;32;20047;-34
2021/01/16 07:19:21;;;;;;;;;;;2.90;97.80;;;;;;4349014;32;20047;-34
2021/01/16 07:21:51;;;;;;;;;;;2.90;97.80;;;;;;4348770;32;20072;-33
2021/01/16 07:24:20;;;;;;;;;;;2.90;97.80;;;;;;4361802;32;20350;-33
2021/01/16 07:26:48;;;;;;;;;;;2.90;97.80;;;;;;4348551;32;20017;-33
2021/01/16 07:29:17;;;;;;;;;;;2.90;97.80;;;;;;4361916;32;20017;-33
2021/01/16 07:31:49;;;;;;;;;;;2.90;97.90;;;;;;4361970;32;20394;-33
2021/01/16 07:34:20;;;;;;;;;;;2.90;97.80;;;;;;4336421;32;20390;-34
2021/01/16 07:36:51;;;;;;;;;;;2.90;97.80;;;;;;4335900;32;20038;-34
2021/01/16 07:39:19;;;;;;;;;;;2.90;97.80;;;;;;4336292;32;20079;-34
2021/01/16 07:41:48;;;;;;;;;;;2.90;97.80;;;;;;4348432;32;20011;-34
2021/01/16 07:44:17;;;;;;;;;;;2.90;97.80;;;;;;4361770;32;20038;-34
2021/01/16 07:46:50;;;;;;;;;;;2.80;97.80;;;;;;4361821;32;20009;-34
2021/01/16 07:49:26;;;;;;;;;;;2.90;97.80;;;;;;4361357;32;21076;-34
2021/01/16 07:51:57;;;;;;;;;;;2.90;97.70;;;;;;4362189;32;20439;-33
2021/01/16 07:54:26;;;;;;;;;;;2.80;97.60;;;;;;4348673;32;20011;-33
2021/01/16 07:57:05;;;;;;;;;;;2.80;97.50;;;;;;4361657;32;20015;-33
2021/01/16 07:59:32;;;;;;;;;;;2.80;97.60;;;;;;4347722;32;20014;-34
2021/01/16 08:02:19;;;;;;;;;;;2.90;97.70;;;;;;4348265;32;20078;-34
2021/01/16 08:05:05;;;;;;;;;;;2.80;97.70;;;;;;4348133;32;20009;-33
2021/01/16 08:07:59;;;;;;;;;;;2.80;97.70;;;;;;4360463;32;20048;-33
2021/01/16 08:10:28;;;;;;;;;;;2.80;97.60;;;;;;4346643;32;20009;-34
2021/01/16 08:13:06;;;;;;;;;;;2.80;97.60;;;;;;4348048;32;20021;-33
2021/01/16 08:15:41;;;;;;;;;;;2.80;97.60;;;;;;4348086;32;20013;-33
2021/01/16 08:18:18;;;;;;;;;;;2.80;97.70;;;;;;4347962;32;20068;-34
2021/01/16 08:20:49;;;;;;;;;;;2.80;97.70;;;;;;4361105;32;20020;-34
2021/01/16 08:23:26;;;;;;;;;;;2.80;97.80;;;;;;4361308;32;20004;-34
2021/01/16 08:26:05;;;;;;;;;;;2.80;97.70;;;;;;4348228;33;20024;-34
2021/01/16 08:28:39;;;;;;;;;;;2.80;97.70;;;;;;4361532;33;20072;-34
2021/01/16 08:31:22;;;;;;;;;;;2.80;97.50;;;;;;4361894;33;20437;-34
2021/01/16 08:33:49;;;;;;;;;;;2.80;97.60;;;;;;4348021;33;20017;-34
2021/01/16 08:36:17;;;;;;;;;;;2.80;97.60;;;;;;4361464;33;20005;-34
2021/01/16 08:38:51;;;;;;;;;;;2.80;97.50;;;;;;4335847;33;20418;-34
2021/01/16 08:41:22;;;;;;;;;;;2.80;97.60;;;;;;4348001;33;20026;-34
2021/01/16 08:43:50;;;;;;;;;;;2.80;97.60;;;;;;4335300;33;20001;-34
2021/01/16 08:46:24;;;;;;;;;;;2.80;97.60;;;;;;4361104;33;20013;-34
2021/01/16 08:49:09;;;;;;;;;;;2.80;97.60;;;;;;4361372;33;20064;-34
2021/01/16 08:51:42;;;;;;;;;;;2.80;97.60;;;;;;4361085;33;20050;-34
2021/01/16 08:54:15;;;;;;;;;;;2.80;97.60;;;;;;4347370;33;20020;-33
2021/01/16 08:56:43;;;;;;;;;;;2.80;97.50;;;;;;4348025;33;20012;-33
2021/01/16 08:59:14;;;;;;;;;;;2.80;97.50;;;;;;4361020;33;20019;-33
2021/01/16 09:01:41;;;;;;;;;;;2.70;97.40;;;;;;4347443;33;20009;-34
2021/01/16 09:04:15;;;;;;;;;;;2.80;97.40;;;;;;4361230;33;20060;-34
2021/01/16 09:06:42;;;;;;;;;;;2.80;97.40;;;;;;4347374;33;20009;-34
2021/01/16 09:09:10;;;;;;;;;;;2.80;97.30;;;;;;4347364;33;20077;-33
2021/01/16 09:11:43;;;;;;;;;;;2.80;97.20;;;;;;4347676;32;20432;-33
2021/01/16 09:14:19;;;;;;;;;;;2.80;97.20;;;;;;4363773;32;20012;-35
2021/01/16 09:16:53;;;;;;;;;;;2.70;97.00;;;;;;4351205;32;20023;-34
2021/01/16 09:19:30;;;;;;;;;;;2.70;97.00;;;;;;4350037;32;20015;-33
2021/01/16 09:22:34;;;;;;;;;;;2.70;97.00;;;;;;4363385;32;20025;-33
2021/01/16 09:25:30;;;;;;;;;;;2.70;97.10;;;;;;4342323;32;20015;-34
2021/01/16 09:28:00;;;;;;;;;;;2.70;97.10;;;;;;4362597;32;20389;-34
2021/01/16 09:30:30;;;;;;;;;;;2.70;97.30;;;;;;4363729;32;20004;-33
2021/01/16 09:33:20;;;;;;;;;;;2.70;97.00;;;;;;4363854;32;20043;-34
2021/01/16 09:35:50;;;;;;;;;;;2.70;97.00;;;;;;4349880;32;20005;-34
2021/01/16 09:38:21;;;;;;;;;;;2.70;97.10;;;;;;4350094;32;20013;-34
2021/01/16 09:40:51;;;;;;;;;;;2.70;97.00;;;;;;4349735;32;20060;-34
2021/01/16 09:43:25;;;;;;;;;;;2.70;97.10;;;;;;4363285;32;20477;-33
2021/01/16 09:45:55;;;;;;;;;;;2.70;96.90;;;;;;4350104;32;20012;-35
2021/01/16 09:48:41;;;;;;;;;;;2.70;96.90;;;;;;4350035;32;20074;-33
2021/01/16 09:51:09;;;;;;;;;;;2.70;96.90;;;;;;4350324;32;20012;-34
2021/01/16 09:53:36;;;;;;;;;;;2.70;96.90;;;;;;4349963;32;20324;-34
2021/01/16 09:56:06;;;;;;;;;;;2.70;96.70;;;;;;4349824;32;20083;-33
2021/01/16 09:58:41;;;;;;;;;;;2.70;96.30;;;;;;4338024;32;20460;-34
2021/01/16 10:01:14;;;;;;;;;;;2.70;96.60;;;;;;4337873;32;20072;-34
2021/01/16 10:03:41;;;;;;;;;;;2.70;96.50;;;;;;4363101;32;20025;-33
2021/01/16 10:06:09;;;;;;;;;;;2.70;96.60;;;;;;4363026;32;20500;-33
2021/01/16 10:08:39;;;;;;;;;;;2.70;96.80;;;;;;4349768;32;20046;-33
2021/01/16 10:11:06;;;;;;;;;;;2.70;96.60;;;;;;4349707;32;20016;-34
2021/01/16 10:13:38;;;;;;;;;;;2.70;96.40;;;;;;4362440;32;20064;-34
2021/01/16 10:16:07;;;;;;;;;;;2.70;96.40;;;;;;4362695;32;20017;-34
2021/01/16 10:18:35;;;;;;;;;;;2.70;96.40;;;;;;4362950;32;20019;-34
2021/01/16 10:21:09;;;;;;;;;;;2.70;96.30;;;;;;4349385;32;20009;-33
2021/01/16 10:23:40;;;;;;;;;;;2.70;96.20;;;;;;4337269;32;20043;-34
2021/01/16 10:26:12;;;;;;;;;;;2.70;96.30;;;;;;4362097;32;20023;-34
2021/01/16 10:28:40;;;;;;;;;;;2.60;96.00;;;;;;4349337;32;20023;-34
2021/01/16 10:31:10;;;;;;;;;;;2.70;96.00;;;;;;4349321;32;20013;-34
2021/01/16 10:33:41;;;;;;;;;;;2.60;95.90;;;;;;4350075;32;20012;-34
2021/01/16 10:36:08;;;;;;;;;;;2.60;95.70;;;;;;4336931;33;20080;-34
2021/01/16 10:38:46;;;;;;;;;;;2.60;95.70;;;;;;4356301;32;20016;-33
2021/01/16 10:41:14;;;;;;;;;;;2.60;95.10;;;;;;4377371;32;20016;-35
2021/01/16 10:49:17;;;;;;;;;;;2.80;95.10;;;;;;4459946;31;20031;-77
2021/01/16 10:51:48;;;;;;;;;;;2.70;94.20;;;;;;4437082;32;22293;-77
2021/01/16 10:54:15;;;;;;;;;;;2.40;93.50;;;;;;4450477;32;20025;-76
2021/01/16 10:56:45;;;;;;;;;;;2.20;94.10;;;;;;4449216;32;20036;-78
2021/01/16 10:59:13;;;;;;;;;;;2.00;94.20;;;;;;4449217;32;20019;-78
2021/01/16 11:01:43;;;;;;;;;;;1.80;93.80;;;;;;4434078;32;20389;-78
2021/01/16 11:04:20;;;;;;;;;;;1.70;93.60;;;;;;4463838;32;20009;-77
2021/01/16 11:06:47;;;;;;;;;;;1.50;93.50;;;;;;4464398;32;20036;-78
2021/01/16 11:09:34;;;;;;;;;;;1.50;93.70;;;;;;4451218;32;20018;-78
2021/01/16 11:12:01;;;;;;;;;;;1.40;93.70;;;;;;4465347;32;20011;-78
2021/01/16 11:14:41;;;;;;;;;;;1.30;93.70;;;;;;4465157;32;19999;-77
2021/01/16 11:17:11;;;;;;;;;;;1.30;93.90;;;;;;4464628;32;19999;-76
2021/01/16 11:19:41;;;;;;;;;;;1.30;94.10;;;;;;4449469;32;20015;-78
2021/01/16 11:22:09;;;;;;;;;;;1.30;93.80;;;;;;4455338;32;20007;-76
2021/01/16 11:24:45;;;;;;;;;;;1.20;93.70;;;;;;4449060;32;20134;-77
2021/01/16 11:27:16;;;;;;;;;;;1.20;93.70;;;;;;4445327;32;28380;-77
2021/01/16 11:29:43;;;;;;;;;;;1.20;93.70;;;;;;4432673;32;20007;-77
2021/01/16 11:32:16;;;;;;;;;;;1.20;93.10;;;;;;4446367;32;20015;-76
2021/01/16 11:35:02;;;;;;;;;;;1.20;93.50;;;;;;4474340;32;20384;-76
2021/01/16 11:37:48;;;;;;;;;;;1.10;93.30;;;;;;4448378;32;20072;-77
2021/01/16 11:40:23;;;;;;;;;;;1.10;93.30;;;;;;4449724;32;20351;-77
2021/01/16 11:43:08;;;;;;;;;;;1.10;93.40;;;;;;4449910;32;20022;-76
2021/01/16 11:45:40;;;;;;;;;;;1.10;93.00;;;;;;4448486;32;19999;-76
2021/01/16 11:48:10;;;;;;;;;;;1.10;93.20;;;;;;4449472;32;20003;-76
2021/01/16 11:50:42;;;;;;;;;;;1.00;92.80;;;;;;4449270;32;20017;-76
2021/01/16 11:53:09;;;;;;;;;;;1.10;92.70;;;;;;4449397;32;20011;-77
2021/01/16 11:55:39;;;;;;;;;;;1.00;92.10;;;;;;4449648;32;20105;-76
2021/01/16 11:58:05;;;;;;;;;;;1.00;92.40;;;;;;4448189;32;20076;-76
2021/01/16 12:00:36;;;;;;;;;;;1.00;92.40;;;;;;4438759;32;20437;-76
2021/01/16 12:03:26;;;;;;;;;;;1.00;92.70;;;;;;4439259;32;20004;-77
2021/01/16 12:05:55;;;;;;;;;;;1.00;92.80;;;;;;4439161;32;20004;-76
2021/01/16 12:08:23;;;;;;;;;;;1.00;92.60;;;;;;4439340;32;20042;-77
2021/01/16 12:10:51;;;;;;;;;;;1.00;92.60;;;;;;4425546;32;20001;-77
2021/01/16 12:13:18;;;;;;;;;;;1.00;92.20;;;;;;4437974;32;20019;-77
2021/01/16 12:15:53;;;;;;;;;;;1.00;92.00;;;;;;4438769;32;20017;-77
2021/01/16 12:18:23;;;;;;;;;;;1.00;92.30;;;;;;4437436;32;20015;-77
2021/01/16 12:20:50;;;;;;;;;;;0.90;91.90;;;;;;4438586;32;20010;-76
2021/01/16 12:23:19;;;;;;;;;;;1.00;92.20;;;;;;4438508;32;20011;-77
2021/01/16 12:25:50;;;;;;;;;;;1.00;92.20;;;;;;4437117;32;20074;-77
2021/01/16 12:28:22;;;;;;;;;;;1.00;92.30;;;;;;4424326;32;20027;-76
2021/01/16 12:30:54;;;;;;;;;;;0.90;91.80;;;;;;4437426;32;20011;-76
2021/01/16 12:33:21;;;;;;;;;;;1.00;91.80;;;;;;4412196;32;20010;-78
2021/01/16 12:35:48;;;;;;;;;;;1.00;91.90;;;;;;4406783;32;20032;-78
2021/01/16 12:38:15;;;;;;;;;;;1.00;91.70;;;;;;4407914;32;20018;-77
2021/01/16 12:40:47;;;;;;;;;;;1.00;91.80;;;;;;4419262;32;20413;-77
2021/01/16 12:43:19;;;;;;;;;;;1.00;92.00;;;;;;4407715;32;20021;-77
2021/01/16 12:45:49;;;;;;;;;;;0.90;91.80;;;;;;4407894;32;19999;-77
2021/01/16 12:48:18;;;;;;;;;;;1.00;91.70;;;;;;4406486;32;20371;-77
2021/01/16 12:50:45;;;;;;;;;;;0.90;91.60;;;;;;4407551;32;20042;-76
2021/01/16 12:53:13;;;;;;;;;;;1.00;91.60;;;;;;4407273;32;20022;-76
2021/01/16 12:55:40;;;;;;;;;;;0.90;91.80;;;;;;4407334;32;20016;-76
2021/01/16 12:58:07;;;;;;;;;;;0.90;91.90;;;;;;4406026;32;23178;-76
2021/01/16 13:00:39;;;;;;;;;;;0.90;91.80;;;;;;4407873;32;20385;-76
2021/01/16 13:03:05;;;;;;;;;;;0.90;91.50;;;;;;4405941;32;20074;-76
2021/01/16 13:05:33;;;;;;;;;;;0.90;91.70;;;;;;4407298;32;20000;-76
2021/01/16 13:08:03;;;;;;;;;;;0.90;91.60;;;;;;4407759;32;19996;-76
2021/01/16 13:10:33;;;;;;;;;;;0.90;91.70;;;;;;4405219;32;20364;-77
2021/01/16 13:12:59;;;;;;;;;;;0.90;91.60;;;;;;4418470;32;20046;-77
2021/01/16 13:15:36;;;;;;;;;;;0.90;91.60;;;;;;4418133;32;20075;-77
2021/01/16 13:18:10;;;;;;;;;;;0.90;91.30;;;;;;4407337;32;20041;-77
2021/01/16 13:20:44;;;;;;;;;;;0.90;91.70;;;;;;4406481;32;20011;-77
2021/01/16 13:23:11;;;;;;;;;;;0.90;91.60;;;;;;4405716;32;20033;-77
2021/01/16 13:25:38;;;;;;;;;;;0.90;91.60;;;;;;4407036;32;20004;-76
2021/01/16 13:28:07;;;;;;;;;;;0.90;91.50;;;;;;4418191;32;20029;-77
2021/01/16 13:30:34;;;;;;;;;;;0.90;91.50;;;;;;4405286;32;20027;-77
2021/01/16 13:33:01;;;;;;;;;;;0.90;91.50;;;;;;4417405;32;22401;-77
2021/01/16 13:35:30;;;;;;;;;;;0.90;91.50;;;;;;4406957;32;20004;-77
2021/01/16 13:38:00;;;;;;;;;;;0.90;91.40;;;;;;4418473;32;20393;-77
2021/01/16 13:40:37;;;;;;;;;;;0.90;91.50;;;;;;4405544;32;20006;-77
2021/01/16 13:43:07;;;;;;;;;;;0.90;91.60;;;;;;4406067;32;20037;-77
2021/01/16 13:45:37;;;;;;;;;;;0.90;91.40;;;;;;4418047;32;20012;-77
2021/01/16 13:48:07;;;;;;;;;;;0.90;91.40;;;;;;4417897;32;20020;-77
2021/01/16 13:50:35;;;;;;;;;;;0.90;91.40;;;;;;4405962;32;20019;-77
2021/01/16 13:53:10;;;;;;;;;;;0.90;91.40;;;;;;4418669;32;20004;-77
2021/01/16 13:55:37;;;;;;;;;;;0.90;91.30;;;;;;4393531;32;20353;-76
2021/01/16 13:58:06;;;;;;;;;;;0.90;91.20;;;;;;4418394;32;20051;-76
2021/01/16 14:00:41;;;;;;;;;;;0.90;91.20;;;;;;4405541;32;20046;-76
2021/01/16 14:03:08;;;;;;;;;;;0.90;91.30;;;;;;4407132;32;20024;-77
2021/01/16 14:05:35;;;;;;;;;;;0.90;91.50;;;;;;4404672;32;29676;-76
2021/01/16 14:08:12;;;;;;;;;;;0.90;91.50;;;;;;4404389;32;33243;-77
2021/01/16 14:10:39;;;;;;;;;;;0.90;91.40;;;;;;4405681;32;44124;-77
2021/01/16 14:13:08;;;;;;;;;;;0.90;91.40;;;;;;4404754;32;39583;-77
2021/01/16 14:15:52;;;;;;;;;;;0.90;91.50;;;;;;4405712;32;41097;-77
2021/01/16 14:18:32;;;;;;;;;;;0.90;91.50;;;;;;4406940;32;20006;-77
2021/01/16 14:21:11;;;;;;;;;;;0.80;91.20;;;;;;4404974;32;20011;-77
2021/01/16 14:23:38;;;;;;;;;;;0.90;91.40;;;;;;4406195;32;19996;-77
2021/01/16 14:26:21;;;;;;;;;;;0.90;91.60;;;;;;4405801;32;20007;-76
2021/01/16 14:28:54;;;;;;;;;;;0.80;91.50;;;;;;4417898;32;20008;-76
2021/01/16 14:31:23;;;;;;;;;;;0.80;91.50;;;;;;4416601;32;20421;-76
2021/01/16 14:34:10;;;;;;;;;;;0.90;91.60;;;;;;4405426;32;35793;-76
2021/01/16 14:36:40;;;;;;;;;;;0.80;91.50;;;;;;4405570;32;37167;-76
2021/01/16 14:39:13;;;;;;;;;;;0.90;91.60;;;;;;4405330;32;36938;-76
2021/01/16 14:41:47;;;;;;;;;;;0.80;91.60;;;;;;4405112;32;34930;-76
2021/01/16 14:44:27;;;;;;;;;;;0.90;91.50;;;;;;4406778;32;20012;-76
2021/01/16 14:47:01;;;;;;;;;;;0.80;91.60;;;;;;4417446;32;20008;-76
2021/01/16 14:49:32;;;;;;;;;;;0.80;91.70;;;;;;4417364;32;20046;-77
2021/01/16 14:52:12;;;;;;;;;;;0.90;91.80;;;;;;4417866;32;20020;-76
2021/01/16 14:54:45;;;;;;;;;;;0.80;91.70;;;;;;4404870;32;20935;-76
2021/01/16 14:57:14;;;;;;;;;;;0.80;91.70;;;;;;4405273;32;20012;-76
2021/01/16 14:59:41;;;;;;;;;;;0.80;91.70;;;;;;4405309;32;38265;-76